sensor_id;sensor_type;location;lat;lon;timestamp;temperature;humidity
25352;DHT22;13304;48.464;8.712;2023-04-16T00:01:40;10.60;89.40
25352;DHT22;13304;48.464;8.712;2023-04-16T00:04:05;10.60;89.50
25352;DHT22;13304;48.464;8.712;2023-04-16T00:06:31;10.60;89.70
25352;DHT22;13304;48.464;8.712;2023-04-16T00:08:57;10.60;89.70
25352;DHT22;13304;48.464;8.712;2023-04-16T00:11:23;10.60;89.80
25352;DHT22;13304;48.464;8.712;2023-04-16T00:13:48;10.50;89.90
25352;DHT22;13304;48.464;8.712;2023-04-16T00:16:14;10.50;90.00
25352;DHT22;13304;48.464;8.712;2023-04-16T00:18:40;10.50;90.00
25352;DHT22;13304;48.464;8.712;2023-04-16T00:21:06;10.50;90.00
25352;DHT22;13304;48.464;8.712;2023-04-16T00:23:32;10.50;90.00
25352;DHT22;13304;48.464;8.712;2023-04-16T00:25:58;10.50;90.10
25352;DHT22;13304;48.464;8.712;2023-04-16T00:28:25;10.50;90.10
25352;DHT22;13304;48.464;8.712;2023-04-16T00:30:52;10.50;90.10
25352;DHT22;13304;48.464;8.712;2023-04-16T00:33:19;10.50;90.20
25352;DHT22;13304;48.464;8.712;2023-04-16T00:35:49;10.50;90.20
25352;DHT22;13304;48.464;8.712;2023-04-16T00:38:15;10.50;90.20
25352;DHT22;13304;48.464;8.712;2023-04-16T00:40:41;10.50;90.20
25352;DHT22;13304;48.464;8.712;2023-04-16T00:43:07;10.50;90.20
25352;DHT22;13304;48.464;8.712;2023-04-16T00:45:32;10.50;90.20
25352;DHT22;13304;48.464;8.712;2023-04-16T00:47:59;10.50;90.20
25352;DHT22;13304;48.464;8.712;2023-04-16T00:50:25;10.50;90.20
25352;DHT22;13304;48.464;8.712;2023-04-16T00:52:51;10.50;90.20
25352;DHT22;13304;48.464;8.712;2023-04-16T00:55:17;10.50;90.20
25352;DHT22;13304;48.464;8.712;2023-04-16T00:57:44;10.50;90.20
25352;DHT22;13304;48.464;8.712;2023-04-16T01:00:11;10.50;90.20
25352;DHT22;13304;48.464;8.712;2023-04-16T01:02:37;10.60;90.20
25352;DHT22;13304;48.464;8.712;2023-04-16T01:05:04;10.50;90.20
25352;DHT22;13304;48.464;8.712;2023-04-16T01:07:30;10.50;90.20
25352;DHT22;13304;48.464;8.712;2023-04-16T01:09:56;10.60;90.20
25352;DHT22;13304;48.464;8.712;2023-04-16T01:12:22;10.60;90.20
25352;DHT22;13304;48.464;8.712;2023-04-16T01:14:48;10.60;90.20
25352;DHT22;13304;48.464;8.712;2023-04-16T01:17:14;10.60;90.20
25352;DHT22;13304;48.464;8.712;2023-04-16T01:19:40;10.60;90.20
25352;DHT22;13304;48.464;8.712;2023-04-16T01:22:05;10.60;90.20
25352;DHT22;13304;48.464;8.712;2023-04-16T01:24:32;10.60;90.20
25352;DHT22;13304;48.464;8.712;2023-04-16T01:26:58;10.50;90.20
25352;DHT22;13304;48.464;8.712;2023-04-16T01:29:24;10.60;90.20
25352;DHT22;13304;48.464;8.712;2023-04-16T01:31:50;10.60;90.20
25352;DHT22;13304;48.464;8.712;2023-04-16T01:34:16;10.60;90.20
25352;DHT22;13304;48.464;8.712;2023-04-16T01:36:41;10.60;90.20
25352;DHT22;13304;48.464;8.712;2023-04-16T01:39:08;10.60;90.20
25352;DHT22;13304;48.464;8.712;2023-04-16T01:41:40;10.60;90.30
25352;DHT22;13304;48.464;8.712;2023-04-16T01:44:06;10.60;90.30
25352;DHT22;13304;48.464;8.712;2023-04-16T01:46:33;10.60;90.30
25352;DHT22;13304;48.464;8.712;2023-04-16T01:49:00;10.60;90.30
25352;DHT22;13304;48.464;8.712;2023-04-16T01:51:26;10.60;90.30
25352;DHT22;13304;48.464;8.712;2023-04-16T01:53:52;10.50;90.30
25352;DHT22;13304;48.464;8.712;2023-04-16T01:56:18;10.50;90.70
25352;DHT22;13304;48.464;8.712;2023-04-16T01:58:44;10.50;90.70
25352;DHT22;13304;48.464;8.712;2023-04-16T02:01:12;10.50;90.30
25352;DHT22;13304;48.464;8.712;2023-04-16T02:03:38;10.50;90.40
25352;DHT22;13304;48.464;8.712;2023-04-16T02:06:04;10.50;90.40
25352;DHT22;13304;48.464;8.712;2023-04-16T02:08:30;10.50;90.40
25352;DHT22;13304;48.464;8.712;2023-04-16T02:10:56;10.50;90.40
25352;DHT22;13304;48.464;8.712;2023-04-16T02:13:22;10.50;90.40
25352;DHT22;13304;48.464;8.712;2023-04-16T02:15:51;10.50;90.40
25352;DHT22;13304;48.464;8.712;2023-04-16T02:18:17;10.50;90.50
25352;DHT22;13304;48.464;8.712;2023-04-16T02:20:44;10.50;90.50
25352;DHT22;13304;48.464;8.712;2023-04-16T02:23:10;10.50;90.50
25352;DHT22;13304;48.464;8.712;2023-04-16T02:25:43;10.50;90.60
25352;DHT22;13304;48.464;8.712;2023-04-16T02:28:11;10.50;90.60
25352;DHT22;13304;48.464;8.712;2023-04-16T02:30:38;10.50;90.60
25352;DHT22;13304;48.464;8.712;2023-04-16T02:33:05;10.50;90.60
25352;DHT22;13304;48.464;8.712;2023-04-16T02:35:32;10.50;90.60
25352;DHT22;13304;48.464;8.712;2023-04-16T02:37:58;10.50;90.60
25352;DHT22;13304;48.464;8.712;2023-04-16T02:40:25;10.50;90.60
25352;DHT22;13304;48.464;8.712;2023-04-16T02:42:51;10.50;90.60
25352;DHT22;13304;48.464;8.712;2023-04-16T02:45:18;10.50;90.60
25352;DHT22;13304;48.464;8.712;2023-04-16T02:47:43;10.50;90.70
25352;DHT22;13304;48.464;8.712;2023-04-16T02:50:09;10.50;90.70
25352;DHT22;13304;48.464;8.712;2023-04-16T02:52:35;10.50;90.70
25352;DHT22;13304;48.464;8.712;2023-04-16T02:55:01;10.50;90.70
25352;DHT22;13304;48.464;8.712;2023-04-16T02:57:27;10.50;90.70
25352;DHT22;13304;48.464;8.712;2023-04-16T02:59:53;10.50;90.70
25352;DHT22;13304;48.464;8.712;2023-04-16T03:02:18;10.50;90.70
25352;DHT22;13304;48.464;8.712;2023-04-16T03:04:44;10.50;90.70
25352;DHT22;13304;48.464;8.712;2023-04-16T03:07:10;10.50;90.60
25352;DHT22;13304;48.464;8.712;2023-04-16T03:09:37;10.50;90.70
25352;DHT22;13304;48.464;8.712;2023-04-16T03:12:03;10.50;90.60
25352;DHT22;13304;48.464;8.712;2023-04-16T03:14:29;10.50;90.70
25352;DHT22;13304;48.464;8.712;2023-04-16T03:16:56;10.50;90.70
25352;DHT22;13304;48.464;8.712;2023-04-16T03:19:22;10.50;90.60
25352;DHT22;13304;48.464;8.712;2023-04-16T03:21:47;10.50;90.60
25352;DHT22;13304;48.464;8.712;2023-04-16T03:24:13;10.50;90.60
25352;DHT22;13304;48.464;8.712;2023-04-16T03:26:39;10.50;90.50
25352;DHT22;13304;48.464;8.712;2023-04-16T03:29:05;10.50;90.50
25352;DHT22;13304;48.464;8.712;2023-04-16T03:31:31;10.50;90.50
25352;DHT22;13304;48.464;8.712;2023-04-16T03:33:56;10.50;90.60
25352;DHT22;13304;48.464;8.712;2023-04-16T03:36:22;10.40;90.60
25352;DHT22;13304;48.464;8.712;2023-04-16T03:38:48;10.40;90.50
25352;DHT22;13304;48.464;8.712;2023-04-16T03:41:14;10.40;90.60
25352;DHT22;13304;48.464;8.712;2023-04-16T03:43:40;10.40;90.60
25352;DHT22;13304;48.464;8.712;2023-04-16T03:46:06;10.50;90.60
25352;DHT22;13304;48.464;8.712;2023-04-16T03:48:31;10.40;90.60
25352;DHT22;13304;48.464;8.712;2023-04-16T03:50:57;10.40;90.60
25352;DHT22;13304;48.464;8.712;2023-04-16T03:53:23;10.40;90.60
25352;DHT22;13304;48.464;8.712;2023-04-16T03:55:50;10.40;90.60
25352;DHT22;13304;48.464;8.712;2023-04-16T03:58:16;10.40;90.70
25352;DHT22;13304;48.464;8.712;2023-04-16T04:00:42;10.40;90.70
25352;DHT22;13304;48.464;8.712;2023-04-16T04:03:09;10.40;90.70
25352;DHT22;13304;48.464;8.712;2023-04-16T04:05:39;10.40;90.70
25352;DHT22;13304;48.464;8.712;2023-04-16T04:08:06;10.30;90.80
25352;DHT22;13304;48.464;8.712;2023-04-16T04:10:33;10.40;90.90
25352;DHT22;13304;48.464;8.712;2023-04-16T04:13:00;10.40;90.90
25352;DHT22;13304;48.464;8.712;2023-04-16T04:15:25;10.40;90.90
25352;DHT22;13304;48.464;8.712;2023-04-16T04:17:51;10.40;90.90
25352;DHT22;13304;48.464;8.712;2023-04-16T04:20:17;10.40;90.90
25352;DHT22;13304;48.464;8.712;2023-04-16T04:22:42;10.40;90.90
25352;DHT22;13304;48.464;8.712;2023-04-16T04:25:12;10.40;90.90
25352;DHT22;13304;48.464;8.712;2023-04-16T04:27:37;10.40;90.80
25352;DHT22;13304;48.464;8.712;2023-04-16T04:30:04;10.40;90.80
25352;DHT22;13304;48.464;8.712;2023-04-16T04:32:30;10.40;90.80
25352;DHT22;13304;48.464;8.712;2023-04-16T04:34:56;10.40;90.90
25352;DHT22;13304;48.464;8.712;2023-04-16T04:37:22;10.40;90.90
25352;DHT22;13304;48.464;8.712;2023-04-16T04:39:48;10.40;90.90
25352;DHT22;13304;48.464;8.712;2023-04-16T04:42:16;10.40;90.90
25352;DHT22;13304;48.464;8.712;2023-04-16T04:44:42;10.40;90.90
25352;DHT22;13304;48.464;8.712;2023-04-16T04:47:08;10.40;90.90
25352;DHT22;13304;48.464;8.712;2023-04-16T04:49:34;10.40;91.00
25352;DHT22;13304;48.464;8.712;2023-04-16T04:52:00;10.40;91.00
25352;DHT22;13304;48.464;8.712;2023-04-16T04:54:27;10.40;91.00
25352;DHT22;13304;48.464;8.712;2023-04-16T04:56:53;10.30;91.00
25352;DHT22;13304;48.464;8.712;2023-04-16T04:59:20;10.30;91.00
25352;DHT22;13304;48.464;8.712;2023-04-16T05:01:46;10.30;91.00
25352;DHT22;13304;48.464;8.712;2023-04-16T05:04:12;10.30;91.00
25352;DHT22;13304;48.464;8.712;2023-04-16T05:06:37;10.30;91.10
25352;DHT22;13304;48.464;8.712;2023-04-16T05:09:03;10.30;91.10
25352;DHT22;13304;48.464;8.712;2023-04-16T05:11:29;10.30;91.10
25352;DHT22;13304;48.464;8.712;2023-04-16T05:13:54;10.30;91.20
25352;DHT22;13304;48.464;8.712;2023-04-16T05:16:20;10.30;91.20
25352;DHT22;13304;48.464;8.712;2023-04-16T05:18:46;10.30;91.20
25352;DHT22;13304;48.464;8.712;2023-04-16T05:21:12;10.30;91.30
25352;DHT22;13304;48.464;8.712;2023-04-16T05:23:37;10.30;91.30
25352;DHT22;13304;48.464;8.712;2023-04-16T05:26:03;10.30;91.30
25352;DHT22;13304;48.464;8.712;2023-04-16T05:28:29;10.30;91.30
25352;DHT22;13304;48.464;8.712;2023-04-16T05:30:55;10.30;91.30
25352;DHT22;13304;48.464;8.712;2023-04-16T05:33:21;10.30;91.30
25352;DHT22;13304;48.464;8.712;2023-04-16T05:35:46;10.30;91.40
25352;DHT22;13304;48.464;8.712;2023-04-16T05:38:12;10.40;91.40
25352;DHT22;13304;48.464;8.712;2023-04-16T05:40:38;10.30;91.40
25352;DHT22;13304;48.464;8.712;2023-04-16T05:43:04;10.40;91.40
25352;DHT22;13304;48.464;8.712;2023-04-16T05:45:29;10.40;91.40
25352;DHT22;13304;48.464;8.712;2023-04-16T05:47:57;10.40;91.40
25352;DHT22;13304;48.464;8.712;2023-04-16T05:50:23;10.40;91.40
25352;DHT22;13304;48.464;8.712;2023-04-16T05:52:49;10.40;91.40
25352;DHT22;13304;48.464;8.712;2023-04-16T05:55:14;10.40;91.40
25352;DHT22;13304;48.464;8.712;2023-04-16T05:57:40;10.50;91.40
25352;DHT22;13304;48.464;8.712;2023-04-16T06:00:06;10.50;91.30
25352;DHT22;13304;48.464;8.712;2023-04-16T06:02:32;10.50;91.30
25352;DHT22;13304;48.464;8.712;2023-04-16T06:04:58;10.50;91.30
25352;DHT22;13304;48.464;8.712;2023-04-16T06:07:24;10.50;91.30
25352;DHT22;13304;48.464;8.712;2023-04-16T06:09:50;10.50;91.30
25352;DHT22;13304;48.464;8.712;2023-04-16T06:12:16;10.50;91.40
25352;DHT22;13304;48.464;8.712;2023-04-16T06:14:41;10.50;91.40
25352;DHT22;13304;48.464;8.712;2023-04-16T06:17:07;10.50;91.40
25352;DHT22;13304;48.464;8.712;2023-04-16T06:19:33;10.50;91.30
25352;DHT22;13304;48.464;8.712;2023-04-16T06:21:58;10.50;91.40
25352;DHT22;13304;48.464;8.712;2023-04-16T06:24:24;10.50;91.30
25352;DHT22;13304;48.464;8.712;2023-04-16T06:26:50;10.60;91.10
25352;DHT22;13304;48.464;8.712;2023-04-16T06:29:16;10.60;91.40
25352;DHT22;13304;48.464;8.712;2023-04-16T06:31:41;10.60;91.40
25352;DHT22;13304;48.464;8.712;2023-04-16T06:34:07;10.60;91.40
25352;DHT22;13304;48.464;8.712;2023-04-16T06:36:33;10.60;91.50
25352;DHT22;13304;48.464;8.712;2023-04-16T06:38:59;10.60;91.50
25352;DHT22;13304;48.464;8.712;2023-04-16T06:41:25;10.60;91.50
25352;DHT22;13304;48.464;8.712;2023-04-16T06:43:51;10.60;91.50
25352;DHT22;13304;48.464;8.712;2023-04-16T06:46:17;10.60;91.50
25352;DHT22;13304;48.464;8.712;2023-04-16T06:48:42;10.60;91.40
25352;DHT22;13304;48.464;8.712;2023-04-16T06:51:08;10.60;91.30
25352;DHT22;13304;48.464;8.712;2023-04-16T06:53:35;10.60;91.20
25352;DHT22;13304;48.464;8.712;2023-04-16T06:56:01;10.60;91.20
25352;DHT22;13304;48.464;8.712;2023-04-16T06:58:27;10.60;91.30
25352;DHT22;13304;48.464;8.712;2023-04-16T07:00:53;10.60;91.30
25352;DHT22;13304;48.464;8.712;2023-04-16T07:03:19;10.60;91.30
25352;DHT22;13304;48.464;8.712;2023-04-16T07:05:45;10.60;91.30
25352;DHT22;13304;48.464;8.712;2023-04-16T07:08:11;10.60;91.30
25352;DHT22;13304;48.464;8.712;2023-04-16T07:10:37;10.60;91.30
25352;DHT22;13304;48.464;8.712;2023-04-16T07:13:02;10.60;91.30
25352;DHT22;13304;48.464;8.712;2023-04-16T07:15:28;10.60;91.30
25352;DHT22;13304;48.464;8.712;2023-04-16T07:17:54;10.60;91.30
25352;DHT22;13304;48.464;8.712;2023-04-16T07:20:20;10.60;91.30
25352;DHT22;13304;48.464;8.712;2023-04-16T07:22:45;10.60;91.30
25352;DHT22;13304;48.464;8.712;2023-04-16T07:25:11;10.70;91.30
25352;DHT22;13304;48.464;8.712;2023-04-16T07:27:37;10.60;91.30
25352;DHT22;13304;48.464;8.712;2023-04-16T07:30:03;10.60;91.20
25352;DHT22;13304;48.464;8.712;2023-04-16T07:32:29;10.70;91.20
25352;DHT22;13304;48.464;8.712;2023-04-16T07:34:55;10.60;91.10
25352;DHT22;13304;48.464;8.712;2023-04-16T07:37:21;10.60;91.10
25352;DHT22;13304;48.464;8.712;2023-04-16T07:39:47;10.60;91.20
25352;DHT22;13304;48.464;8.712;2023-04-16T07:42:13;10.60;91.10
25352;DHT22;13304;48.464;8.712;2023-04-16T07:44:38;10.60;91.20
25352;DHT22;13304;48.464;8.712;2023-04-16T07:47:04;10.60;91.20
25352;DHT22;13304;48.464;8.712;2023-04-16T07:49:30;10.70;91.30
25352;DHT22;13304;48.464;8.712;2023-04-16T07:51:56;10.70;91.30
25352;DHT22;13304;48.464;8.712;2023-04-16T07:54:21;10.70;91.40
25352;DHT22;13304;48.464;8.712;2023-04-16T07:56:47;10.70;91.20
25352;DHT22;13304;48.464;8.712;2023-04-16T07:59:13;10.70;91.20
25352;DHT22;13304;48.464;8.712;2023-04-16T08:01:39;10.80;91.30
25352;DHT22;13304;48.464;8.712;2023-04-16T08:04:04;10.80;91.30
25352;DHT22;13304;48.464;8.712;2023-04-16T08:06:30;10.70;91.20
25352;DHT22;13304;48.464;8.712;2023-04-16T08:08:56;10.70;91.00
25352;DHT22;13304;48.464;8.712;2023-04-16T08:11:22;10.70;90.90
25352;DHT22;13304;48.464;8.712;2023-04-16T08:13:49;10.80;91.10
25352;DHT22;13304;48.464;8.712;2023-04-16T08:16:14;10.80;91.00
25352;DHT22;13304;48.464;8.712;2023-04-16T08:18:40;10.80;90.90
25352;DHT22;13304;48.464;8.712;2023-04-16T08:21:06;10.80;90.80
25352;DHT22;13304;48.464;8.712;2023-04-16T08:23:32;10.70;90.70
25352;DHT22;13304;48.464;8.712;2023-04-16T08:26:00;10.80;90.90
25352;DHT22;13304;48.464;8.712;2023-04-16T08:28:26;10.80;90.80
25352;DHT22;13304;48.464;8.712;2023-04-16T08:30:52;10.80;91.00
25352;DHT22;13304;48.464;8.712;2023-04-16T08:33:17;10.80;91.10
25352;DHT22;13304;48.464;8.712;2023-04-16T08:35:43;10.80;91.10
25352;DHT22;13304;48.464;8.712;2023-04-16T08:38:09;10.90;90.90
25352;DHT22;13304;48.464;8.712;2023-04-16T08:40:37;11.00;91.10
25352;DHT22;13304;48.464;8.712;2023-04-16T08:43:09;11.00;91.00
25352;DHT22;13304;48.464;8.712;2023-04-16T08:45:40;11.10;91.10
25352;DHT22;13304;48.464;8.712;2023-04-16T08:48:07;11.10;91.20
25352;DHT22;13304;48.464;8.712;2023-04-16T08:50:36;11.10;91.20
25352;DHT22;13304;48.464;8.712;2023-04-16T08:53:04;11.20;90.90
25352;DHT22;13304;48.464;8.712;2023-04-16T08:55:40;11.30;91.10
25352;DHT22;13304;48.464;8.712;2023-04-16T08:58:18;11.30;90.80
25352;DHT22;13304;48.464;8.712;2023-04-16T09:00:46;11.40;91.00
25352;DHT22;13304;48.464;8.712;2023-04-16T09:03:12;11.50;91.20
25352;DHT22;13304;48.464;8.712;2023-04-16T09:05:38;11.50;91.10
25352;DHT22;13304;48.464;8.712;2023-04-16T09:08:07;11.60;91.00
25352;DHT22;13304;48.464;8.712;2023-04-16T09:10:34;11.70;91.00
25352;DHT22;13304;48.464;8.712;2023-04-16T09:13:00;11.80;90.80
25352;DHT22;13304;48.464;8.712;2023-04-16T09:15:26;11.80;90.30
25352;DHT22;13304;48.464;8.712;2023-04-16T09:17:52;11.80;90.00
25352;DHT22;13304;48.464;8.712;2023-04-16T09:20:19;11.90;90.10
25352;DHT22;13304;48.464;8.712;2023-04-16T09:22:45;11.90;90.10
25352;DHT22;13304;48.464;8.712;2023-04-16T09:25:11;11.90;90.30
25352;DHT22;13304;48.464;8.712;2023-04-16T09:27:38;11.90;89.10
25352;DHT22;13304;48.464;8.712;2023-04-16T09:30:24;11.90;89.70
25352;DHT22;13304;48.464;8.712;2023-04-16T09:32:51;11.80;88.70
25352;DHT22;13304;48.464;8.712;2023-04-16T09:35:20;11.90;89.80
25352;DHT22;13304;48.464;8.712;2023-04-16T09:37:56;11.90;89.40
25352;DHT22;13304;48.464;8.712;2023-04-16T09:40:27;11.90;88.70
25352;DHT22;13304;48.464;8.712;2023-04-16T09:42:58;12.00;88.60
25352;DHT22;13304;48.464;8.712;2023-04-16T09:45:26;11.90;87.90
25352;DHT22;13304;48.464;8.712;2023-04-16T09:48:01;12.00;87.80
25352;DHT22;13304;48.464;8.712;2023-04-16T09:50:30;11.90;87.50
25352;DHT22;13304;48.464;8.712;2023-04-16T09:53:00;11.90;87.90
25352;DHT22;13304;48.464;8.712;2023-04-16T09:55:27;11.90;88.10
25352;DHT22;13304;48.464;8.712;2023-04-16T09:58:01;12.00;88.40
25352;DHT22;13304;48.464;8.712;2023-04-16T10:00:28;11.90;86.60
25352;DHT22;13304;48.464;8.712;2023-04-16T10:03:05;11.90;87.40
25352;DHT22;13304;48.464;8.712;2023-04-16T10:05:31;11.80;87.00
25352;DHT22;13304;48.464;8.712;2023-04-16T10:07:59;11.90;88.20
25352;DHT22;13304;48.464;8.712;2023-04-16T10:10:26;11.90;88.60
25352;DHT22;13304;48.464;8.712;2023-04-16T10:12:55;12.00;88.70
25352;DHT22;13304;48.464;8.712;2023-04-16T10:15:22;12.00;89.10
25352;DHT22;13304;48.464;8.712;2023-04-16T10:17:48;12.10;89.10
25352;DHT22;13304;48.464;8.712;2023-04-16T10:20:15;12.20;88.60
25352;DHT22;13304;48.464;8.712;2023-04-16T10:22:42;12.30;88.50
25352;DHT22;13304;48.464;8.712;2023-04-16T10:25:12;12.30;88.50
25352;DHT22;13304;48.464;8.712;2023-04-16T10:27:38;12.40;87.20
25352;DHT22;13304;48.464;8.712;2023-04-16T10:30:06;12.40;86.30
25352;DHT22;13304;48.464;8.712;2023-04-16T10:32:33;12.40;86.60
25352;DHT22;13304;48.464;8.712;2023-04-16T10:35:00;12.50;86.70
25352;DHT22;13304;48.464;8.712;2023-04-16T10:37:30;12.50;86.70
25352;DHT22;13304;48.464;8.712;2023-04-16T10:39:57;12.50;86.40
25352;DHT22;13304;48.464;8.712;2023-04-16T10:42:24;12.50;86.80
25352;DHT22;13304;48.464;8.712;2023-04-16T10:44:50;12.50;86.10
25352;DHT22;13304;48.464;8.712;2023-04-16T10:47:16;12.60;85.90
25352;DHT22;13304;48.464;8.712;2023-04-16T10:49:41;12.50;85.90
25352;DHT22;13304;48.464;8.712;2023-04-16T10:52:15;12.50;85.70
25352;DHT22;13304;48.464;8.712;2023-04-16T10:54:51;12.50;85.30
25352;DHT22;13304;48.464;8.712;2023-04-16T10:57:19;12.50;85.10
25352;DHT22;13304;48.464;8.712;2023-04-16T10:59:46;12.50;85.50
25352;DHT22;13304;48.464;8.712;2023-04-16T11:02:17;12.50;85.70
25352;DHT22;13304;48.464;8.712;2023-04-16T11:04:45;12.50;85.60
25352;DHT22;13304;48.464;8.712;2023-04-16T11:10:07;12.60;86.30
25352;DHT22;13304;48.464;8.712;2023-04-16T11:12:41;12.50;84.90
25352;DHT22;13304;48.464;8.712;2023-04-16T11:15:09;12.60;86.30
25352;DHT22;13304;48.464;8.712;2023-04-16T11:17:47;12.70;86.30
25352;DHT22;13304;48.464;8.712;2023-04-16T11:20:17;12.70;86.00
25352;DHT22;13304;48.464;8.712;2023-04-16T11:22:43;12.70;86.30
25352;DHT22;13304;48.464;8.712;2023-04-16T11:25:10;12.80;86.40
25352;DHT22;13304;48.464;8.712;2023-04-16T11:27:36;12.80;86.30
25352;DHT22;13304;48.464;8.712;2023-04-16T11:30:07;12.90;86.70
25352;DHT22;13304;48.464;8.712;2023-04-16T11:32:39;12.90;85.90
25352;DHT22;13304;48.464;8.712;2023-04-16T11:35:16;12.90;85.40
25352;DHT22;13304;48.464;8.712;2023-04-16T11:37:43;12.90;83.60
25352;DHT22;13304;48.464;8.712;2023-04-16T11:40:09;12.90;84.50
25352;DHT22;13304;48.464;8.712;2023-04-16T11:42:36;12.80;83.40
25352;DHT22;13304;48.464;8.712;2023-04-16T11:45:06;12.70;83.40
25352;DHT22;13304;48.464;8.712;2023-04-16T11:47:43;12.60;83.40
25352;DHT22;13304;48.464;8.712;2023-04-16T11:50:24;12.50;83.40
25352;DHT22;13304;48.464;8.712;2023-04-16T11:52:52;12.30;83.40
25352;DHT22;13304;48.464;8.712;2023-04-16T11:55:18;12.30;84.20
25352;DHT22;13304;48.464;8.712;2023-04-16T11:57:48;12.20;84.40
25352;DHT22;13304;48.464;8.712;2023-04-16T12:00:14;12.20;84.60
25352;DHT22;13304;48.464;8.712;2023-04-16T12:02:51;12.10;84.90
25352;DHT22;13304;48.464;8.712;2023-04-16T12:05:34;12.00;84.70
25352;DHT22;13304;48.464;8.712;2023-04-16T12:08:02;12.00;84.60
25352;DHT22;13304;48.464;8.712;2023-04-16T12:10:29;12.00;85.30
25352;DHT22;13304;48.464;8.712;2023-04-16T12:13:15;12.00;85.90
25352;DHT22;13304;48.464;8.712;2023-04-16T12:15:51;11.90;85.30
25352;DHT22;13304;48.464;8.712;2023-04-16T12:18:19;11.90;85.70
25352;DHT22;13304;48.464;8.712;2023-04-16T12:20:47;11.90;85.90
25352;DHT22;13304;48.464;8.712;2023-04-16T12:23:27;11.80;86.10
25352;DHT22;13304;48.464;8.712;2023-04-16T12:25:54;11.80;85.40
25352;DHT22;13304;48.464;8.712;2023-04-16T12:28:34;11.80;86.10
25352;DHT22;13304;48.464;8.712;2023-04-16T12:31:02;11.70;87.10
25352;DHT22;13304;48.464;8.712;2023-04-16T12:33:28;11.80;86.80
25352;DHT22;13304;48.464;8.712;2023-04-16T12:35:54;11.80;87.10
25352;DHT22;13304;48.464;8.712;2023-04-16T12:38:20;11.70;87.30
25352;DHT22;13304;48.464;8.712;2023-04-16T12:40:46;11.80;87.30
25352;DHT22;13304;48.464;8.712;2023-04-16T12:43:12;11.70;87.30
25352;DHT22;13304;48.464;8.712;2023-04-16T12:45:41;11.70;87.30
25352;DHT22;13304;48.464;8.712;2023-04-16T12:48:07;11.70;87.50
25352;DHT22;13304;48.464;8.712;2023-04-16T12:50:32;11.70;87.90
25352;DHT22;13304;48.464;8.712;2023-04-16T12:52:58;11.70;88.30
25352;DHT22;13304;48.464;8.712;2023-04-16T12:55:24;11.70;88.40
25352;DHT22;13304;48.464;8.712;2023-04-16T12:57:50;11.70;88.40
25352;DHT22;13304;48.464;8.712;2023-04-16T13:00:20;11.70;88.50
25352;DHT22;13304;48.464;8.712;2023-04-16T13:02:46;11.70;88.70
25352;DHT22;13304;48.464;8.712;2023-04-16T13:05:11;11.80;89.00
25352;DHT22;13304;48.464;8.712;2023-04-16T13:07:56;11.70;88.80
25352;DHT22;13304;48.464;8.712;2023-04-16T13:10:22;11.70;88.90
25352;DHT22;13304;48.464;8.712;2023-04-16T13:12:48;11.80;89.60
25352;DHT22;13304;48.464;8.712;2023-04-16T13:15:14;11.80;89.90
25352;DHT22;13304;48.464;8.712;2023-04-16T13:17:40;11.80;89.90
25352;DHT22;13304;48.464;8.712;2023-04-16T13:20:06;11.90;89.80
25352;DHT22;13304;48.464;8.712;2023-04-16T13:22:32;11.90;89.70
25352;DHT22;13304;48.464;8.712;2023-04-16T13:24:58;12.00;89.60
25352;DHT22;13304;48.464;8.712;2023-04-16T13:27:23;12.00;89.40
25352;DHT22;13304;48.464;8.712;2023-04-16T13:29:49;12.00;89.30
25352;DHT22;13304;48.464;8.712;2023-04-16T13:32:15;12.00;89.00
25352;DHT22;13304;48.464;8.712;2023-04-16T13:34:41;12.00;89.10
25352;DHT22;13304;48.464;8.712;2023-04-16T13:37:07;12.10;89.50
25352;DHT22;13304;48.464;8.712;2023-04-16T13:39:33;12.10;89.20
25352;DHT22;13304;48.464;8.712;2023-04-16T13:41:59;12.10;89.30
25352;DHT22;13304;48.464;8.712;2023-04-16T13:44:27;12.10;89.20
25352;DHT22;13304;48.464;8.712;2023-04-16T13:46:53;12.10;88.90
25352;DHT22;13304;48.464;8.712;2023-04-16T13:49:19;12.10;88.70
25352;DHT22;13304;48.464;8.712;2023-04-16T13:51:45;12.10;88.50
25352;DHT22;13304;48.464;8.712;2023-04-16T13:54:10;12.10;88.30
25352;DHT22;13304;48.464;8.712;2023-04-16T13:56:36;12.10;88.20
25352;DHT22;13304;48.464;8.712;2023-04-16T13:59:02;12.10;88.30
25352;DHT22;13304;48.464;8.712;2023-04-16T14:01:28;12.10;88.70
25352;DHT22;13304;48.464;8.712;2023-04-16T14:03:53;12.10;88.60
25352;DHT22;13304;48.464;8.712;2023-04-16T14:06:23;12.10;88.80
25352;DHT22;13304;48.464;8.712;2023-04-16T14:08:53;12.10;88.20
25352;DHT22;13304;48.464;8.712;2023-04-16T14:11:19;12.20;88.50
25352;DHT22;13304;48.464;8.712;2023-04-16T14:13:45;12.20;88.80
25352;DHT22;13304;48.464;8.712;2023-04-16T14:16:11;12.20;89.30
25352;DHT22;13304;48.464;8.712;2023-04-16T14:18:37;12.20;89.10
25352;DHT22;13304;48.464;8.712;2023-04-16T14:21:07;12.30;89.40
25352;DHT22;13304;48.464;8.712;2023-04-16T14:23:32;12.30;89.80
25352;DHT22;13304;48.464;8.712;2023-04-16T14:25:58;12.30;89.60
25352;DHT22;13304;48.464;8.712;2023-04-16T14:28:24;12.40;89.60
25352;DHT22;13304;48.464;8.712;2023-04-16T14:30:50;12.40;89.70
25352;DHT22;13304;48.464;8.712;2023-04-16T14:33:16;12.50;89.60
25352;DHT22;13304;48.464;8.712;2023-04-16T14:35:41;12.50;89.30
25352;DHT22;13304;48.464;8.712;2023-04-16T14:38:07;12.60;89.60
25352;DHT22;13304;48.464;8.712;2023-04-16T14:40:33;12.60;88.80
25352;DHT22;13304;48.464;8.712;2023-04-16T14:42:59;12.70;89.30
25352;DHT22;13304;48.464;8.712;2023-04-16T14:45:25;12.70;88.90
25352;DHT22;13304;48.464;8.712;2023-04-16T14:47:51;12.70;88.70
25352;DHT22;13304;48.464;8.712;2023-04-16T14:50:18;12.70;89.10
25352;DHT22;13304;48.464;8.712;2023-04-16T14:52:43;12.80;89.00
25352;DHT22;13304;48.464;8.712;2023-04-16T14:55:09;12.80;89.20
25352;DHT22;13304;48.464;8.712;2023-04-16T14:57:35;12.90;89.20
25352;DHT22;13304;48.464;8.712;2023-04-16T15:00:03;12.80;88.10
25352;DHT22;13304;48.464;8.712;2023-04-16T15:02:33;12.90;88.10
25352;DHT22;13304;48.464;8.712;2023-04-16T15:04:59;12.80;87.70
25352;DHT22;13304;48.464;8.712;2023-04-16T15:07:25;12.80;87.90
25352;DHT22;13304;48.464;8.712;2023-04-16T15:09:51;12.80;88.20
25352;DHT22;13304;48.464;8.712;2023-04-16T15:12:17;12.80;87.80
25352;DHT22;13304;48.464;8.712;2023-04-16T15:14:42;12.70;87.40
25352;DHT22;13304;48.464;8.712;2023-04-16T15:17:08;12.70;87.50
25352;DHT22;13304;48.464;8.712;2023-04-16T15:19:34;12.70;87.40
25352;DHT22;13304;48.464;8.712;2023-04-16T15:22:00;12.70;87.30
25352;DHT22;13304;48.464;8.712;2023-04-16T15:24:26;12.60;86.80
25352;DHT22;13304;48.464;8.712;2023-04-16T15:26:51;12.60;86.90
25352;DHT22;13304;48.464;8.712;2023-04-16T15:29:17;12.60;87.20
25352;DHT22;13304;48.464;8.712;2023-04-16T15:31:43;12.60;87.10